WIF855 ENEV-ENTC
Flight info
| Callsign | WIF855 |
|---|---|
| Flight time | 0h 38m |
| Altitude | 12000 |
| Route | BARVI |
| Aircraft | DH8C/M-SDFGR/S |
Departure
| Time | 2026-04-21 18:18 |
|---|---|
| Airport | Harstad/Narvik Airport (ENEV) |
Arrival
| Time | 2026-04-21 18:56 |
|---|---|
| Airport | Tromsø Airport (ENTC) |
| Time | Latitude | Longitude | Altitude | Speed | Heading |
|---|---|---|---|---|---|
| 2026-04-21 18:14 | 68.49089 | 16.68202 | 85 ft | 0 kts | 353° |
| 2026-04-21 18:15 | 68.49185 | 16.68177 | 84 ft | 28 kts | 357° |
| 2026-04-21 18:15 | 68.49398 | 16.68144 | 77 ft | 31 kts | 356° |
| 2026-04-21 18:15 | 68.49622 | 16.68116 | 69 ft | 32 kts | 359° |
| 2026-04-21 18:15 | 68.49836 | 16.68090 | 66 ft | 29 kts | 359° |
| 2026-04-21 18:16 | 68.50030 | 16.68070 | 67 ft | 26 kts | 357° |
| 2026-04-21 18:16 | 68.50198 | 16.68045 | 73 ft | 22 kts | 359° |
| 2026-04-21 18:16 | 68.50341 | 16.68012 | 82 ft | 20 kts | 335° |
| 2026-04-21 18:16 | 68.50357 | 16.67758 | 88 ft | 14 kts | 211° |
| 2026-04-21 18:17 | 68.50190 | 16.67704 | 86 ft | 59 kts | 179° |
| 2026-04-21 18:17 | 68.49546 | 16.67633 | 173 ft | 117 kts | 181° |
| 2026-04-21 18:17 | 68.48621 | 16.67823 | 347 ft | 149 kts | 182° |
| 2026-04-21 18:17 | 68.47495 | 16.67966 | 530 ft | 170 kts | 182° |
| 2026-04-21 18:18 | 68.46306 | 16.68117 | 1061 ft | 165 kts | 182° |
| 2026-04-21 18:18 | 68.45223 | 16.68133 | 1849 ft | 151 kts | 198° |
| 2026-04-21 18:18 | 68.44345 | 16.66648 | 2121 ft | 158 kts | 236° |
| 2026-04-21 18:18 | 68.43918 | 16.63954 | 2663 ft | 150 kts | 262° |
| 2026-04-21 18:19 | 68.43676 | 16.61356 | 3435 ft | 136 kts | 251° |
| 2026-04-21 18:19 | 68.43337 | 16.59056 | 4091 ft | 130 kts | 255° |
| 2026-04-21 18:19 | 68.43044 | 16.56649 | 4555 ft | 137 kts | 259° |
| 2026-04-21 18:19 | 68.42741 | 16.54096 | 4993 ft | 147 kts | 259° |
| 2026-04-21 18:20 | 68.42417 | 16.51376 | 5435 ft | 155 kts | 260° |
| 2026-04-21 18:20 | 68.42085 | 16.48533 | 5896 ft | 160 kts | 260° |
| 2026-04-21 18:20 | 68.41735 | 16.45615 | 6389 ft | 164 kts | 260° |
| 2026-04-21 18:20 | 68.41370 | 16.42640 | 6872 ft | 168 kts | 260° |
| 2026-04-21 18:21 | 68.41091 | 16.39587 | 7346 ft | 164 kts | 277° |
| 2026-04-21 18:21 | 68.41301 | 16.36637 | 7845 ft | 161 kts | 292° |
| 2026-04-21 18:21 | 68.41882 | 16.34044 | 8360 ft | 163 kts | 311° |
| 2026-04-21 18:21 | 68.42799 | 16.32184 | 8870 ft | 169 kts | 329° |
| 2026-04-21 18:22 | 68.43959 | 16.31329 | 9398 ft | 174 kts | 341° |
| 2026-04-21 18:22 | 68.45116 | 16.30469 | 9913 ft | 173 kts | 335° |
| 2026-04-21 18:22 | 68.46274 | 16.29508 | 10397 ft | 175 kts | 337° |
| 2026-04-21 18:22 | 68.47457 | 16.28627 | 10835 ft | 174 kts | 339° |
| 2026-04-21 18:23 | 68.48592 | 16.27752 | 11310 ft | 170 kts | 337° |
| 2026-04-21 18:23 | 68.49746 | 16.26859 | 11783 ft | 174 kts | 338° |
| 2026-04-21 18:23 | 68.50940 | 16.25938 | 12120 ft | 186 kts | 338° |
| 2026-04-21 18:23 | 68.52266 | 16.24960 | 12177 ft | 207 kts | 340° |
| 2026-04-21 18:24 | 68.53714 | 16.23931 | 12215 ft | 222 kts | 340° |
| 2026-04-21 18:24 | 68.55238 | 16.22850 | 12305 ft | 230 kts | 341° |
| 2026-04-21 18:24 | 68.56780 | 16.21769 | 12420 ft | 232 kts | 342° |
| 2026-04-21 18:24 | 68.58460 | 16.21669 | 12488 ft | 249 kts | 3° |
| 2026-04-21 18:25 | 68.60120 | 16.23225 | 12543 ft | 267 kts | 20° |
| 2026-04-21 18:25 | 68.61632 | 16.26469 | 12576 ft | 281 kts | 33° |
| 2026-04-21 18:25 | 68.63178 | 16.29724 | 12556 ft | 279 kts | 25° |
| 2026-04-21 18:25 | 68.64805 | 16.32650 | 12563 ft | 282 kts | 26° |
| 2026-04-21 18:26 | 68.66399 | 16.35871 | 12568 ft | 287 kts | 29° |
| 2026-04-21 18:26 | 68.67984 | 16.39260 | 12559 ft | 290 kts | 30° |
| 2026-04-21 18:26 | 68.69582 | 16.42662 | 12555 ft | 291 kts | 29° |
| 2026-04-21 18:26 | 68.71208 | 16.45999 | 12514 ft | 293 kts | 28° |
| 2026-04-21 18:27 | 68.72846 | 16.49353 | 12511 ft | 294 kts | 27° |
| 2026-04-21 18:27 | 68.74487 | 16.52747 | 12451 ft | 296 kts | 28° |
| 2026-04-21 18:27 | 68.76128 | 16.56191 | 12370 ft | 297 kts | 28° |
| 2026-04-21 18:27 | 68.77779 | 16.59647 | 12298 ft | 298 kts | 28° |
| 2026-04-21 18:28 | 68.79434 | 16.63071 | 12222 ft | 299 kts | 28° |
| 2026-04-21 18:28 | 68.81096 | 16.66542 | 12140 ft | 300 kts | 28° |
| 2026-04-21 18:28 | 68.82753 | 16.70028 | 12126 ft | 298 kts | 28° |
| 2026-04-21 18:28 | 68.84409 | 16.73494 | 12105 ft | 297 kts | 28° |
| 2026-04-21 18:29 | 68.86052 | 16.76935 | 12100 ft | 296 kts | 28° |
| 2026-04-21 18:29 | 68.87686 | 16.80384 | 12103 ft | 295 kts | 28° |
| 2026-04-21 18:29 | 68.89321 | 16.83829 | 12102 ft | 295 kts | 28° |
| 2026-04-21 18:29 | 68.90948 | 16.87267 | 12098 ft | 294 kts | 28° |
| 2026-04-21 18:30 | 68.92558 | 16.90679 | 12111 ft | 294 kts | 28° |
| 2026-04-21 18:30 | 68.94182 | 16.94117 | 12110 ft | 294 kts | 28° |
| 2026-04-21 18:30 | 68.95806 | 16.97572 | 12093 ft | 294 kts | 28° |
| 2026-04-21 18:30 | 68.97427 | 17.01032 | 12092 ft | 294 kts | 28° |
| 2026-04-21 18:31 | 68.99055 | 17.04498 | 12090 ft | 294 kts | 28° |
| 2026-04-21 18:31 | 69.00675 | 17.07960 | 12088 ft | 294 kts | 28° |
| 2026-04-21 18:31 | 69.02303 | 17.11420 | 12073 ft | 292 kts | 25° |
| 2026-04-21 18:31 | 69.04024 | 17.14301 | 12075 ft | 288 kts | 20° |
| 2026-04-21 18:32 | 69.05765 | 17.17141 | 12075 ft | 290 kts | 21° |
| 2026-04-21 18:32 | 69.07485 | 17.20087 | 12079 ft | 291 kts | 22° |
| 2026-04-21 18:32 | 69.09202 | 17.23104 | 12064 ft | 291 kts | 23° |
| 2026-04-21 18:32 | 69.10885 | 17.26089 | 12061 ft | 288 kts | 22° |
| 2026-04-21 18:33 | 69.12590 | 17.29049 | 12102 ft | 288 kts | 21° |
| 2026-04-21 18:33 | 69.14307 | 17.32011 | 12067 ft | 289 kts | 21° |
| 2026-04-21 18:33 | 69.16013 | 17.34982 | 12067 ft | 289 kts | 22° |
| 2026-04-21 18:33 | 69.17718 | 17.37966 | 12056 ft | 288 kts | 22° |
| 2026-04-21 18:34 | 69.19419 | 17.40931 | 12049 ft | 288 kts | 22° |
| 2026-04-21 18:34 | 69.21125 | 17.43918 | 12047 ft | 288 kts | 22° |
| 2026-04-21 18:34 | 69.22827 | 17.46912 | 12044 ft | 289 kts | 22° |
| 2026-04-21 18:34 | 69.24532 | 17.49906 | 12042 ft | 289 kts | 22° |
| 2026-04-21 18:35 | 69.25681 | 17.51925 | 12048 ft | 288 kts | 22° |
| 2026-04-21 18:35 | 69.27941 | 17.55911 | 12050 ft | 289 kts | 22° |
| 2026-04-21 18:35 | 69.29650 | 17.58930 | 12054 ft | 290 kts | 22° |
| 2026-04-21 18:35 | 69.31358 | 17.61951 | 12061 ft | 290 kts | 22° |
| 2026-04-21 18:36 | 69.33065 | 17.64984 | 12038 ft | 290 kts | 22° |
| 2026-04-21 18:36 | 69.34776 | 17.68033 | 12032 ft | 289 kts | 22° |
| 2026-04-21 18:36 | 69.36459 | 17.71053 | 11792 ft | 283 kts | 23° |
| 2026-04-21 18:36 | 69.38091 | 17.74049 | 11462 ft | 274 kts | 24° |
| 2026-04-21 18:37 | 69.39663 | 17.76947 | 11115 ft | 265 kts | 21° |
| 2026-04-21 18:37 | 69.41203 | 17.79575 | 10782 ft | 259 kts | 20° |
| 2026-04-21 18:37 | 69.42743 | 17.82057 | 10412 ft | 250 kts | 17° |
| 2026-04-21 18:37 | 69.44232 | 17.84536 | 10100 ft | 249 kts | 23° |
| 2026-04-21 18:38 | 69.45664 | 17.87403 | 9765 ft | 251 kts | 25° |
| 2026-04-21 18:38 | 69.47102 | 17.90153 | 9413 ft | 248 kts | 22° |
| 2026-04-21 18:38 | 69.48569 | 17.92744 | 9070 ft | 248 kts | 21° |
| 2026-04-21 18:38 | 69.50039 | 17.95267 | 8738 ft | 244 kts | 21° |
| 2026-04-21 18:39 | 69.51479 | 17.97803 | 8431 ft | 244 kts | 24° |
| 2026-04-21 18:39 | 69.52882 | 18.00532 | 8053 ft | 244 kts | 23° |
| 2026-04-21 18:39 | 69.54330 | 18.03179 | 7521 ft | 250 kts | 23° |
| 2026-04-21 18:39 | 69.55817 | 18.05888 | 6870 ft | 257 kts | 24° |
| 2026-04-21 18:40 | 69.57356 | 18.08722 | 6015 ft | 267 kts | 26° |
| 2026-04-21 18:40 | 69.58878 | 18.11603 | 5207 ft | 257 kts | 27° |
| 2026-04-21 18:40 | 69.59842 | 18.13413 | 4994 ft | 238 kts | 25° |
| 2026-04-21 18:40 | 69.61557 | 18.16428 | 4892 ft | 198 kts | 23° |
| 2026-04-21 18:41 | 69.62702 | 18.18471 | 4563 ft | 193 kts | 24° |
| 2026-04-21 18:41 | 69.63874 | 18.20608 | 3861 ft | 213 kts | 24° |
| 2026-04-21 18:41 | 69.65143 | 18.22911 | 3565 ft | 211 kts | 25° |
| 2026-04-21 18:41 | 69.66329 | 18.25082 | 3694 ft | 196 kts | 23° |
| 2026-04-21 18:42 | 69.67488 | 18.27079 | 3890 ft | 191 kts | 22° |
| 2026-04-21 18:42 | 69.68584 | 18.29109 | 4017 ft | 183 kts | 26° |
| 2026-04-21 18:42 | 69.69626 | 18.31074 | 3957 ft | 181 kts | 22° |
| 2026-04-21 18:42 | 69.70755 | 18.33096 | 3714 ft | 198 kts | 25° |
| 2026-04-21 18:43 | 69.71734 | 18.35107 | 4503 ft | 141 kts | 24° |
| 2026-04-21 18:43 | 69.72620 | 18.36659 | 4065 ft | 164 kts | 18° |
| 2026-04-21 18:43 | 69.73692 | 18.38640 | 3743 ft | 192 kts | 24° |
| 2026-04-21 18:43 | 69.74749 | 18.40590 | 4075 ft | 162 kts | 13° |
| 2026-04-21 18:44 | 69.75707 | 18.42169 | 4179 ft | 168 kts | 22° |
| 2026-04-21 18:44 | 69.76753 | 18.44192 | 4174 ft | 190 kts | 26° |
| 2026-04-21 18:44 | 69.77750 | 18.46237 | 4648 ft | 162 kts | 21° |
| 2026-04-21 18:44 | 69.78711 | 18.47962 | 4638 ft | 169 kts | 20° |
| 2026-04-21 18:45 | 69.79747 | 18.49878 | 4547 ft | 181 kts | 25° |
| 2026-04-21 18:45 | 69.80742 | 18.51873 | 4818 ft | 166 kts | 21° |
| 2026-04-21 18:45 | 69.81715 | 18.53615 | 4866 ft | 169 kts | 21° |
| 2026-04-21 18:45 | 69.82735 | 18.55514 | 4825 ft | 178 kts | 23° |
| 2026-04-21 18:46 | 69.83767 | 18.57530 | 4822 ft | 179 kts | 23° |
| 2026-04-21 18:46 | 69.84811 | 18.59496 | 4841 ft | 179 kts | 22° |
| 2026-04-21 18:46 | 69.85860 | 18.61484 | 4857 ft | 181 kts | 22° |
| 2026-04-21 18:46 | 69.86926 | 18.63420 | 4877 ft | 181 kts | 21° |
| 2026-04-21 18:47 | 69.87996 | 18.65387 | 4890 ft | 183 kts | 24° |
| 2026-04-21 18:47 | 69.89058 | 18.67452 | 4903 ft | 184 kts | 23° |
| 2026-04-21 18:47 | 69.90137 | 18.69459 | 4956 ft | 183 kts | 23° |
| 2026-04-21 18:47 | 69.91192 | 18.71500 | 4992 ft | 182 kts | 23° |
| 2026-04-21 18:48 | 69.92255 | 18.73510 | 4979 ft | 185 kts | 25° |
| 2026-04-21 18:48 | 69.93317 | 18.75625 | 5006 ft | 185 kts | 22° |
| 2026-04-21 18:48 | 69.94412 | 18.77596 | 5001 ft | 185 kts | 21° |
| 2026-04-21 18:48 | 69.95451 | 18.79840 | 4999 ft | 195 kts | 40° |
| 2026-04-21 18:49 | 69.96146 | 18.83347 | 4995 ft | 208 kts | 69° |
| 2026-04-21 18:49 | 69.96155 | 18.87629 | 4994 ft | 217 kts | 100° |
| 2026-04-21 18:49 | 69.95887 | 18.90449 | 4999 ft | 219 kts | 107° |
| 2026-04-21 18:49 | 69.95148 | 18.95992 | 4993 ft | 220 kts | 113° |
| 2026-04-21 18:50 | 69.94553 | 19.00046 | 4986 ft | 222 kts | 112° |
| 2026-04-21 18:50 | 69.93915 | 19.04167 | 4983 ft | 225 kts | 122° |
| 2026-04-21 18:50 | 69.92923 | 19.07475 | 4990 ft | 212 kts | 149° |
| 2026-04-21 18:50 | 69.91600 | 19.08907 | 4980 ft | 198 kts | 193° |
| 2026-04-21 18:51 | 69.90422 | 19.07503 | 5019 ft | 179 kts | 227° |
| 2026-04-21 18:51 | 69.89244 | 19.05963 | 4998 ft | 194 kts | 203° |
| 2026-04-21 18:51 | 69.87923 | 19.05136 | 4986 ft | 190 kts | 207° |
| 2026-04-21 18:51 | 69.86738 | 19.04080 | 4890 ft | 168 kts | 212° |
| 2026-04-21 18:52 | 69.85568 | 19.03375 | 4618 ft | 175 kts | 200° |
| 2026-04-21 18:52 | 69.84388 | 19.02632 | 4318 ft | 174 kts | 206° |
| 2026-04-21 18:52 | 69.83175 | 19.01745 | 3995 ft | 186 kts | 204° |
| 2026-04-21 18:52 | 69.81903 | 19.00834 | 3652 ft | 188 kts | 205° |
| 2026-04-21 18:53 | 69.80616 | 19.00044 | 3300 ft | 189 kts | 201° |
| 2026-04-21 18:53 | 69.79361 | 18.99341 | 2947 ft | 184 kts | 202° |
| 2026-04-21 18:53 | 69.78122 | 18.98631 | 2612 ft | 176 kts | 200° |
| 2026-04-21 18:53 | 69.76972 | 18.97980 | 2262 ft | 162 kts | 204° |
| 2026-04-21 18:54 | 69.75878 | 18.97460 | 1947 ft | 155 kts | 200° |
| 2026-04-21 18:54 | 69.74831 | 18.96969 | 1619 ft | 150 kts | 203° |
| 2026-04-21 18:54 | 69.73811 | 18.96402 | 1361 ft | 148 kts | 205° |
| 2026-04-21 18:54 | 69.72806 | 18.95552 | 974 ft | 153 kts | 204° |
| 2026-04-21 18:55 | 69.72141 | 18.94926 | 718 ft | 150 kts | 209° |
| 2026-04-21 18:55 | 69.70855 | 18.93658 | 355 ft | 142 kts | 206° |
| 2026-04-21 18:55 | 69.69895 | 18.93032 | 94 ft | 140 kts | 203° |
| 2026-04-21 18:55 | 69.69019 | 18.92462 | 31 ft | 118 kts | 208° |
| 2026-04-21 18:56 | 69.68462 | 18.91947 | 25 ft | 40 kts | 193° |
| 2026-04-21 18:56 | 69.68329 | 18.91605 | 24 ft | 24 kts | 274° |
| 2026-04-21 18:56 | 69.68351 | 18.91238 | 25 ft | 13 kts | 300° |